sensor_id;sensor_type;location;lat;lon;timestamp;pressure;altitude;pressure_sealevel;temperature;humidity
54872;BME280;43914;57.680;11.982;2023-02-22T00:01:10;100848.88;;;-0.98;80.11
54872;BME280;43914;57.680;11.982;2023-02-22T00:03:50;100850.88;;;-0.99;79.97
54872;BME280;43914;57.680;11.982;2023-02-22T00:06:19;100855.39;;;-1.00;79.73
54872;BME280;43914;57.680;11.982;2023-02-22T00:08:47;100857.71;;;-1.01;79.69
54872;BME280;43914;57.680;11.982;2023-02-22T00:11:14;100860.06;;;-1.02;79.68
54872;BME280;43914;57.680;11.982;2023-02-22T00:13:40;100858.57;;;-1.03;79.78
54872;BME280;43914;57.680;11.982;2023-02-22T00:16:16;100859.39;;;-1.03;79.65
54872;BME280;43914;57.680;11.982;2023-02-22T00:18:42;100859.20;;;-1.04;79.50
54872;BME280;43914;57.680;11.982;2023-02-22T00:21:09;100859.82;;;-1.06;79.72
54872;BME280;43914;57.680;11.982;2023-02-22T00:23:39;100863.77;;;-1.07;79.61
54872;BME280;43914;57.680;11.982;2023-02-22T00:26:08;100858.88;;;-1.10;79.38
54872;BME280;43914;57.680;11.982;2023-02-22T00:28:37;100856.73;;;-1.12;79.53
54872;BME280;43914;57.680;11.982;2023-02-22T00:31:05;100856.23;;;-1.13;79.48
54872;BME280;43914;57.680;11.982;2023-02-22T00:33:32;100857.23;;;-1.12;79.32
54872;BME280;43914;57.680;11.982;2023-02-22T00:35:58;100856.81;;;-1.11;79.52
54872;BME280;43914;57.680;11.982;2023-02-22T00:38:24;100851.98;;;-1.12;79.27
54872;BME280;43914;57.680;11.982;2023-02-22T00:40:51;100856.21;;;-1.13;79.18
54872;BME280;43914;57.680;11.982;2023-02-22T00:43:16;100856.42;;;-1.16;79.13
54872;BME280;43914;57.680;11.982;2023-02-22T00:45:42;100856.39;;;-1.15;79.34
54872;BME280;43914;57.680;11.982;2023-02-22T00:48:08;100854.83;;;-1.16;79.44
54872;BME280;43914;57.680;11.982;2023-02-22T00:50:34;100849.70;;;-1.15;79.57
54872;BME280;43914;57.680;11.982;2023-02-22T00:53:01;100848.36;;;-1.14;79.38
54872;BME280;43914;57.680;11.982;2023-02-22T00:55:34;100843.05;;;-1.16;79.35
54872;BME280;43914;57.680;11.982;2023-02-22T00:58:03;100845.13;;;-1.18;79.35
54872;BME280;43914;57.680;11.982;2023-02-22T01:00:35;100841.82;;;-1.18;79.54
54872;BME280;43914;57.680;11.982;2023-02-22T01:03:03;100846.14;;;-1.14;79.62
54872;BME280;43914;57.680;11.982;2023-02-22T01:05:30;100840.42;;;-1.16;79.39
54872;BME280;43914;57.680;11.982;2023-02-22T01:07:56;100839.03;;;-1.19;79.17
54872;BME280;43914;57.680;11.982;2023-02-22T01:10:23;100839.90;;;-1.18;79.17
54872;BME280;43914;57.680;11.982;2023-02-22T01:12:49;100841.95;;;-1.18;79.12
54872;BME280;43914;57.680;11.982;2023-02-22T01:15:18;100842.50;;;-1.21;79.21
54872;BME280;43914;57.680;11.982;2023-02-22T01:17:48;100845.47;;;-1.23;79.30
54872;BME280;43914;57.680;11.982;2023-02-22T01:20:15;100840.69;;;-1.22;79.42
54872;BME280;43914;57.680;11.982;2023-02-22T01:22:44;100844.81;;;-1.21;79.44
54872;BME280;43914;57.680;11.982;2023-02-22T01:25:16;100849.25;;;-1.21;79.31
54872;BME280;43914;57.680;11.982;2023-02-22T01:27:42;100835.70;;;-1.29;79.46
54872;BME280;43914;57.680;11.982;2023-02-22T01:30:11;100841.89;;;-1.24;79.52
54872;BME280;43914;57.680;11.982;2023-02-22T01:32:38;100840.80;;;-1.27;79.43
54872;BME280;43914;57.680;11.982;2023-02-22T01:35:09;100841.11;;;-1.28;79.79
54872;BME280;43914;57.680;11.982;2023-02-22T01:37:35;100846.02;;;-1.28;79.67
54872;BME280;43914;57.680;11.982;2023-02-22T01:40:03;100845.90;;;-1.32;79.55
54872;BME280;43914;57.680;11.982;2023-02-22T01:42:31;100846.90;;;-1.31;79.56
54872;BME280;43914;57.680;11.982;2023-02-22T01:47:57;100852.23;;;-1.32;79.51
54872;BME280;43914;57.680;11.982;2023-02-22T01:50:25;100847.22;;;-1.30;79.67
54872;BME280;43914;57.680;11.982;2023-02-22T01:52:51;100848.52;;;-1.31;79.66
54872;BME280;43914;57.680;11.982;2023-02-22T01:55:16;100847.77;;;-1.34;79.46
54872;BME280;43914;57.680;11.982;2023-02-22T01:57:42;100848.45;;;-1.36;79.60
54872;BME280;43914;57.680;11.982;2023-02-22T02:00:12;100851.35;;;-1.37;79.74
54872;BME280;43914;57.680;11.982;2023-02-22T02:02:48;100850.29;;;-1.37;80.03
54872;BME280;43914;57.680;11.982;2023-02-22T02:05:15;100847.41;;;-1.39;79.96
54872;BME280;43914;57.680;11.982;2023-02-22T02:07:42;100851.22;;;-1.35;80.11
54872;BME280;43914;57.680;11.982;2023-02-22T02:10:13;100849.61;;;-1.35;80.06
54872;BME280;43914;57.680;11.982;2023-02-22T02:12:44;100850.96;;;-1.36;79.97
54872;BME280;43914;57.680;11.982;2023-02-22T02:15:31;100849.73;;;-1.39;80.06
54872;BME280;43914;57.680;11.982;2023-02-22T02:18:00;100853.94;;;-1.41;80.13
54872;BME280;43914;57.680;11.982;2023-02-22T02:20:49;100859.05;;;-1.42;80.41
54872;BME280;43914;57.680;11.982;2023-02-22T02:34:41;100856.95;;;-1.50;80.69
54872;BME280;43914;57.680;11.982;2023-02-22T02:45:46;100866.48;;;-1.59;80.96
54872;BME280;43914;57.680;11.982;2023-02-22T02:48:14;100856.63;;;-1.61;80.83
54872;BME280;43914;57.680;11.982;2023-02-22T02:50:45;100852.16;;;-1.60;81.19
54872;BME280;43914;57.680;11.982;2023-02-22T02:53:13;100847.66;;;-1.61;81.22
54872;BME280;43914;57.680;11.982;2023-02-22T02:55:41;100842.36;;;-1.63;81.09
54872;BME280;43914;57.680;11.982;2023-02-22T02:58:07;100836.14;;;-1.65;81.14
54872;BME280;43914;57.680;11.982;2023-02-22T03:00:37;100835.49;;;-1.68;81.12
54872;BME280;43914;57.680;11.982;2023-02-22T03:08:41;100848.53;;;-1.71;81.86
54872;BME280;43914;57.680;11.982;2023-02-22T03:11:53;100843.77;;;-1.71;81.68
54872;BME280;43914;57.680;11.982;2023-02-22T03:19:50;100854.79;;;-1.73;81.89
54872;BME280;43914;57.680;11.982;2023-02-22T03:22:21;100855.27;;;-1.72;82.14
54872;BME280;43914;57.680;11.982;2023-02-22T03:25:04;100856.88;;;-1.70;82.27
54872;BME280;43914;57.680;11.982;2023-02-22T03:27:47;100854.71;;;-1.69;82.13
54872;BME280;43914;57.680;11.982;2023-02-22T03:30:42;100851.35;;;-1.71;81.88
54872;BME280;43914;57.680;11.982;2023-02-22T03:33:19;100853.54;;;-1.73;82.30
54872;BME280;43914;57.680;11.982;2023-02-22T03:35:57;100853.58;;;-1.74;82.47
54872;BME280;43914;57.680;11.982;2023-02-22T03:38:27;100853.73;;;-1.70;82.90
54872;BME280;43914;57.680;11.982;2023-02-22T03:40:58;100846.34;;;-1.70;82.43
54872;BME280;43914;57.680;11.982;2023-02-22T03:43:31;100844.26;;;-1.73;82.30
54872;BME280;43914;57.680;11.982;2023-02-22T03:45:59;100837.80;;;-1.77;82.53
54872;BME280;43914;57.680;11.982;2023-02-22T03:51:10;100839.10;;;-1.80;82.85
54872;BME280;43914;57.680;11.982;2023-02-22T03:53:40;100842.09;;;-1.80;82.78
54872;BME280;43914;57.680;11.982;2023-02-22T03:56:08;100837.93;;;-1.84;82.88
54872;BME280;43914;57.680;11.982;2023-02-22T03:58:38;100839.14;;;-1.84;83.15
54872;BME280;43914;57.680;11.982;2023-02-22T04:01:04;100838.52;;;-1.82;83.32
54872;BME280;43914;57.680;11.982;2023-02-22T04:03:30;100837.55;;;-1.81;83.17
54872;BME280;43914;57.680;11.982;2023-02-22T04:05:55;100834.89;;;-1.80;83.53
54872;BME280;43914;57.680;11.982;2023-02-22T04:08:21;100832.91;;;-1.77;83.68
54872;BME280;43914;57.680;11.982;2023-02-22T04:10:46;100830.66;;;-1.75;83.67
54872;BME280;43914;57.680;11.982;2023-02-22T04:13:12;100838.70;;;-1.71;83.92
54872;BME280;43914;57.680;11.982;2023-02-22T04:15:39;100844.25;;;-1.70;83.51
54872;BME280;43914;57.680;11.982;2023-02-22T04:18:05;100851.30;;;-1.68;83.61
54872;BME280;43914;57.680;11.982;2023-02-22T04:20:30;100853.34;;;-1.67;83.66
54872;BME280;43914;57.680;11.982;2023-02-22T04:22:56;100850.52;;;-1.64;83.50
54872;BME280;43914;57.680;11.982;2023-02-22T04:25:22;100851.80;;;-1.63;83.64
54872;BME280;43914;57.680;11.982;2023-02-22T04:27:48;100851.75;;;-1.59;83.83
54872;BME280;43914;57.680;11.982;2023-02-22T04:30:17;100852.12;;;-1.54;83.64
54872;BME280;43914;57.680;11.982;2023-02-22T04:32:45;100850.03;;;-1.52;83.23
54872;BME280;43914;57.680;11.982;2023-02-22T04:35:11;100854.68;;;-1.50;83.53
54872;BME280;43914;57.680;11.982;2023-02-22T04:37:36;100851.73;;;-1.48;83.51
54872;BME280;43914;57.680;11.982;2023-02-22T04:40:03;100849.98;;;-1.43;83.56
54872;BME280;43914;57.680;11.982;2023-02-22T04:42:33;100849.40;;;-1.39;83.25
54872;BME280;43914;57.680;11.982;2023-02-22T04:44:59;100850.05;;;-1.38;83.05
54872;BME280;43914;57.680;11.982;2023-02-22T04:47:24;100849.55;;;-1.36;82.99
54872;BME280;43914;57.680;11.982;2023-02-22T04:49:50;100851.68;;;-1.34;82.99
54872;BME280;43914;57.680;11.982;2023-02-22T04:52:16;100852.42;;;-1.32;83.10
54872;BME280;43914;57.680;11.982;2023-02-22T04:54:41;100854.13;;;-1.31;82.83
54872;BME280;43914;57.680;11.982;2023-02-22T04:57:07;100855.31;;;-1.28;82.69
54872;BME280;43914;57.680;11.982;2023-02-22T04:59:32;100851.52;;;-1.26;82.72
54872;BME280;43914;57.680;11.982;2023-02-22T05:01:58;100847.86;;;-1.29;82.24
54872;BME280;43914;57.680;11.982;2023-02-22T05:04:25;100849.02;;;-1.28;82.47
54872;BME280;43914;57.680;11.982;2023-02-22T05:06:51;100849.71;;;-1.28;82.57
54872;BME280;43914;57.680;11.982;2023-02-22T05:09:18;100844.21;;;-1.25;82.53
54872;BME280;43914;57.680;11.982;2023-02-22T05:11:44;100848.40;;;-1.24;82.57
54872;BME280;43914;57.680;11.982;2023-02-22T05:14:10;100849.27;;;-1.24;82.26
54872;BME280;43914;57.680;11.982;2023-02-22T05:16:36;100841.09;;;-1.26;82.45
54872;BME280;43914;57.680;11.982;2023-02-22T05:19:04;100842.52;;;-1.23;82.30
54872;BME280;43914;57.680;11.982;2023-02-22T05:21:29;100837.38;;;-1.25;82.13
54872;BME280;43914;57.680;11.982;2023-02-22T05:23:55;100839.14;;;-1.28;82.21
54872;BME280;43914;57.680;11.982;2023-02-22T05:26:21;100843.47;;;-1.30;82.37
54872;BME280;43914;57.680;11.982;2023-02-22T05:28:47;100839.23;;;-1.29;82.50
54872;BME280;43914;57.680;11.982;2023-02-22T05:31:13;100841.04;;;-1.32;82.37
54872;BME280;43914;57.680;11.982;2023-02-22T05:33:38;100843.19;;;-1.33;82.71
54872;BME280;43914;57.680;11.982;2023-02-22T05:36:05;100847.27;;;-1.34;82.62
54872;BME280;43914;57.680;11.982;2023-02-22T05:38:32;100840.77;;;-1.34;82.96
54872;BME280;43914;57.680;11.982;2023-02-22T05:41:01;100839.43;;;-1.35;82.92
54872;BME280;43914;57.680;11.982;2023-02-22T05:43:27;100832.75;;;-1.35;83.10
54872;BME280;43914;57.680;11.982;2023-02-22T05:45:52;100833.06;;;-1.34;83.11
54872;BME280;43914;57.680;11.982;2023-02-22T05:48:17;100836.65;;;-1.35;83.06
54872;BME280;43914;57.680;11.982;2023-02-22T05:50:43;100841.60;;;-1.38;83.03
54872;BME280;43914;57.680;11.982;2023-02-22T05:53:09;100845.72;;;-1.37;83.31
54872;BME280;43914;57.680;11.982;2023-02-22T05:55:34;100847.92;;;-1.41;83.48
54872;BME280;43914;57.680;11.982;2023-02-22T05:58:00;100855.91;;;-1.39;83.63
54872;BME280;43914;57.680;11.982;2023-02-22T06:00:28;100853.55;;;-1.41;83.83
54872;BME280;43914;57.680;11.982;2023-02-22T06:03:00;100857.13;;;-1.39;84.06
54872;BME280;43914;57.680;11.982;2023-02-22T06:05:26;100857.13;;;-1.39;84.10
54872;BME280;43914;57.680;11.982;2023-02-22T06:07:52;100857.83;;;-1.42;83.95
54872;BME280;43914;57.680;11.982;2023-02-22T06:10:18;100859.02;;;-1.41;84.54
54872;BME280;43914;57.680;11.982;2023-02-22T06:12:45;100860.61;;;-1.41;84.71
54872;BME280;43914;57.680;11.982;2023-02-22T06:15:11;100865.24;;;-1.42;84.45
54872;BME280;43914;57.680;11.982;2023-02-22T06:17:36;100867.31;;;-1.45;84.63
54872;BME280;43914;57.680;11.982;2023-02-22T06:20:03;100873.59;;;-1.44;84.98
54872;BME280;43914;57.680;11.982;2023-02-22T06:22:29;100875.96;;;-1.45;85.08
54872;BME280;43914;57.680;11.982;2023-02-22T06:24:54;100874.25;;;-1.46;85.38
54872;BME280;43914;57.680;11.982;2023-02-22T06:27:20;100882.85;;;-1.46;85.57
54872;BME280;43914;57.680;11.982;2023-02-22T06:29:46;100884.77;;;-1.46;85.55
54872;BME280;43914;57.680;11.982;2023-02-22T06:32:12;100886.19;;;-1.48;85.63
54872;BME280;43914;57.680;11.982;2023-02-22T06:34:38;100889.10;;;-1.50;85.91
54872;BME280;43914;57.680;11.982;2023-02-22T06:37:06;100895.32;;;-1.48;86.13
54872;BME280;43914;57.680;11.982;2023-02-22T06:39:31;100891.67;;;-1.46;86.47
54872;BME280;43914;57.680;11.982;2023-02-22T06:41:58;100891.44;;;-1.46;86.70
54872;BME280;43914;57.680;11.982;2023-02-22T06:44:23;100896.50;;;-1.45;86.57
54872;BME280;43914;57.680;11.982;2023-02-22T06:46:49;100893.11;;;-1.44;86.82
54872;BME280;43914;57.680;11.982;2023-02-22T06:49:16;100896.30;;;-1.45;86.67
54872;BME280;43914;57.680;11.982;2023-02-22T06:51:42;100896.82;;;-1.44;87.05
54872;BME280;43914;57.680;11.982;2023-02-22T06:54:07;100904.05;;;-1.42;87.22
54872;BME280;43914;57.680;11.982;2023-02-22T06:56:34;100902.75;;;-1.41;87.25
54872;BME280;43914;57.680;11.982;2023-02-22T06:58:59;100903.52;;;-1.39;87.53
54872;BME280;43914;57.680;11.982;2023-02-22T07:01:27;100903.80;;;-1.38;87.44
54872;BME280;43914;57.680;11.982;2023-02-22T07:03:53;100904.77;;;-1.37;87.63
54872;BME280;43914;57.680;11.982;2023-02-22T07:06:19;100905.79;;;-1.36;87.67
54872;BME280;43914;57.680;11.982;2023-02-22T07:08:44;100902.96;;;-1.33;88.04
54872;BME280;43914;57.680;11.982;2023-02-22T07:11:10;100903.98;;;-1.33;88.03
54872;BME280;43914;57.680;11.982;2023-02-22T07:13:35;100898.05;;;-1.31;88.13
54872;BME280;43914;57.680;11.982;2023-02-22T07:16:01;100894.50;;;-1.28;88.37
54872;BME280;43914;57.680;11.982;2023-02-22T07:18:27;100895.14;;;-1.27;88.32
54872;BME280;43914;57.680;11.982;2023-02-22T07:20:53;100896.83;;;-1.26;88.42
54872;BME280;43914;57.680;11.982;2023-02-22T07:23:19;100894.55;;;-1.23;88.50
54872;BME280;43914;57.680;11.982;2023-02-22T07:25:44;100897.84;;;-1.18;88.84
54872;BME280;43914;57.680;11.982;2023-02-22T07:28:10;100902.39;;;-1.11;88.89
54872;BME280;43914;57.680;11.982;2023-02-22T07:30:36;100909.43;;;-1.09;88.65
54872;BME280;43914;57.680;11.982;2023-02-22T07:33:04;100908.69;;;-1.06;88.80
54872;BME280;43914;57.680;11.982;2023-02-22T07:35:32;100903.77;;;-1.01;88.91
54872;BME280;43914;57.680;11.982;2023-02-22T07:38:01;100900.77;;;-0.95;88.92
54872;BME280;43914;57.680;11.982;2023-02-22T07:40:27;100898.13;;;-0.90;89.10
54872;BME280;43914;57.680;11.982;2023-02-22T07:43:01;100901.94;;;-0.84;88.93
54872;BME280;43914;57.680;11.982;2023-02-22T07:45:31;100901.58;;;-0.79;88.82
54872;BME280;43914;57.680;11.982;2023-02-22T07:47:58;100905.14;;;-0.72;88.96
54872;BME280;43914;57.680;11.982;2023-02-22T07:50:26;100902.02;;;-0.67;88.59
54872;BME280;43914;57.680;11.982;2023-02-22T07:52:54;100905.95;;;-0.61;88.47
54872;BME280;43914;57.680;11.982;2023-02-22T07:55:22;100907.60;;;-0.56;88.44
54872;BME280;43914;57.680;11.982;2023-02-22T07:57:50;100909.95;;;-0.52;88.26
54872;BME280;43914;57.680;11.982;2023-02-22T08:00:24;100910.05;;;-0.49;88.47
54872;BME280;43914;57.680;11.982;2023-02-22T08:02:51;100915.08;;;-0.42;88.55
54872;BME280;43914;57.680;11.982;2023-02-22T08:05:17;100918.05;;;-0.37;88.34
54872;BME280;43914;57.680;11.982;2023-02-22T08:07:43;100918.34;;;-0.34;88.43
54872;BME280;43914;57.680;11.982;2023-02-22T08:10:10;100917.44;;;-0.31;88.08
54872;BME280;43914;57.680;11.982;2023-02-22T08:12:36;100918.30;;;-0.28;88.22
54872;BME280;43914;57.680;11.982;2023-02-22T08:15:04;100918.88;;;-0.24;88.36
54872;BME280;43914;57.680;11.982;2023-02-22T08:17:30;100919.48;;;-0.20;88.31
54872;BME280;43914;57.680;11.982;2023-02-22T08:19:55;100916.32;;;-0.15;88.41
54872;BME280;43914;57.680;11.982;2023-02-22T08:22:21;100915.12;;;-0.10;88.14
54872;BME280;43914;57.680;11.982;2023-02-22T08:24:47;100912.48;;;-0.06;88.06
54872;BME280;43914;57.680;11.982;2023-02-22T08:27:12;100917.37;;;-0.03;87.79
54872;BME280;43914;57.680;11.982;2023-02-22T08:29:37;100915.25;;;0.00;87.77
54872;BME280;43914;57.680;11.982;2023-02-22T08:32:03;100916.52;;;0.02;87.60
54872;BME280;43914;57.680;11.982;2023-02-22T08:34:28;100913.13;;;0.05;87.83
54872;BME280;43914;57.680;11.982;2023-02-22T08:36:54;100896.66;;;0.01;87.73
54872;BME280;43914;57.680;11.982;2023-02-22T08:39:20;100908.17;;;0.10;87.85
54872;BME280;43914;57.680;11.982;2023-02-22T08:41:46;100910.78;;;0.16;87.76
54872;BME280;43914;57.680;11.982;2023-02-22T08:44:11;100914.48;;;0.18;87.60
54872;BME280;43914;57.680;11.982;2023-02-22T08:46:37;100905.40;;;0.20;87.83
54872;BME280;43914;57.680;11.982;2023-02-22T08:49:03;100911.09;;;0.23;87.87
54872;BME280;43914;57.680;11.982;2023-02-22T08:51:34;100911.71;;;0.27;87.96
54872;BME280;43914;57.680;11.982;2023-02-22T08:54:00;100910.19;;;0.31;88.09
54872;BME280;43914;57.680;11.982;2023-02-22T08:56:28;100908.17;;;0.37;88.13
54872;BME280;43914;57.680;11.982;2023-02-22T08:58:55;100904.38;;;0.41;87.96
54872;BME280;43914;57.680;11.982;2023-02-22T09:01:22;100906.48;;;0.48;88.37
54872;BME280;43914;57.680;11.982;2023-02-22T09:03:49;100907.42;;;0.57;88.13
54872;BME280;43914;57.680;11.982;2023-02-22T09:06:15;100908.65;;;0.64;88.20
54872;BME280;43914;57.680;11.982;2023-02-22T09:08:41;100907.17;;;0.69;87.82
54872;BME280;43914;57.680;11.982;2023-02-22T09:11:06;100910.14;;;0.75;87.63
54872;BME280;43914;57.680;11.982;2023-02-22T09:13:31;100907.68;;;0.80;87.53
54872;BME280;43914;57.680;11.982;2023-02-22T09:15:57;100906.59;;;0.84;87.51
54872;BME280;43914;57.680;11.982;2023-02-22T09:18:22;100906.93;;;0.89;87.23
54872;BME280;43914;57.680;11.982;2023-02-22T09:20:48;100903.21;;;0.92;87.14
54872;BME280;43914;57.680;11.982;2023-02-22T09:23:13;100902.89;;;0.96;86.75
54872;BME280;43914;57.680;11.982;2023-02-22T09:25:39;100904.69;;;0.98;86.53
54872;BME280;43914;57.680;11.982;2023-02-22T09:28:05;100903.30;;;1.00;86.68
54872;BME280;43914;57.680;11.982;2023-02-22T09:30:35;100902.07;;;1.02;86.73
54872;BME280;43914;57.680;11.982;2023-02-22T09:33:07;100908.92;;;1.05;86.65
54872;BME280;43914;57.680;11.982;2023-02-22T09:35:37;100905.95;;;1.09;86.84
54872;BME280;43914;57.680;11.982;2023-02-22T09:38:07;100906.16;;;1.13;86.66
54872;BME280;43914;57.680;11.982;2023-02-22T09:40:38;100907.65;;;1.19;86.59
54872;BME280;43914;57.680;11.982;2023-02-22T09:48:50;100904.07;;;1.36;85.59
54872;BME280;43914;57.680;11.982;2023-02-22T09:51:22;100905.14;;;1.40;85.85
54872;BME280;43914;57.680;11.982;2023-02-22T09:53:54;100903.86;;;1.46;85.43
54872;BME280;43914;57.680;11.982;2023-02-22T09:56:23;100906.28;;;1.48;85.06
54872;BME280;43914;57.680;11.982;2023-02-22T09:58:54;100905.01;;;1.53;85.09
54872;BME280;43914;57.680;11.982;2023-02-22T10:01:40;100910.30;;;1.60;85.23
54872;BME280;43914;57.680;11.982;2023-02-22T10:04:18;100916.05;;;1.68;85.02
54872;BME280;43914;57.680;11.982;2023-02-22T10:07:28;100914.15;;;1.75;85.06
54872;BME280;43914;57.680;11.982;2023-02-22T10:09:56;100915.77;;;1.81;84.63
54872;BME280;43914;57.680;11.982;2023-02-22T10:13:00;100915.88;;;1.84;84.10
54872;BME280;43914;57.680;11.982;2023-02-22T10:15:32;100915.81;;;1.87;84.10
54872;BME280;43914;57.680;11.982;2023-02-22T10:23:45;100914.19;;;1.96;83.69
54872;BME280;43914;57.680;11.982;2023-02-22T10:26:24;100911.04;;;2.00;83.58
54872;BME280;43914;57.680;11.982;2023-02-22T10:29:02;100903.95;;;2.05;83.43
54872;BME280;43914;57.680;11.982;2023-02-22T10:31:33;100904.23;;;2.08;82.96
54872;BME280;43914;57.680;11.982;2023-02-22T10:34:02;100902.54;;;2.09;83.04
54872;BME280;43914;57.680;11.982;2023-02-22T10:36:30;100898.25;;;2.14;83.20
54872;BME280;43914;57.680;11.982;2023-02-22T10:38:59;100900.00;;;2.21;83.19
54872;BME280;43914;57.680;11.982;2023-02-22T10:41:30;100900.35;;;2.30;83.21
54872;BME280;43914;57.680;11.982;2023-02-22T10:43:57;100903.77;;;2.38;83.20
54872;BME280;43914;57.680;11.982;2023-02-22T10:46:24;100900.41;;;2.44;83.27
54872;BME280;43914;57.680;11.982;2023-02-22T10:48:53;100896.88;;;2.53;83.07
54872;BME280;43914;57.680;11.982;2023-02-22T10:51:21;100899.31;;;2.57;82.26
54872;BME280;43914;57.680;11.982;2023-02-22T10:54:17;100898.23;;;2.64;82.51
54872;BME280;43914;57.680;11.982;2023-02-22T10:56:49;100890.88;;;2.68;81.56
54872;BME280;43914;57.680;11.982;2023-02-22T10:59:30;100885.13;;;2.69;81.64
54872;BME280;43914;57.680;11.982;2023-02-22T11:01:57;100880.77;;;2.77;81.81
54872;BME280;43914;57.680;11.982;2023-02-22T11:04:24;100876.29;;;2.81;81.92
54872;BME280;43914;57.680;11.982;2023-02-22T11:07:20;100876.80;;;2.86;81.42
54872;BME280;43914;57.680;11.982;2023-02-22T11:10:19;100872.82;;;2.91;81.05
54872;BME280;43914;57.680;11.982;2023-02-22T11:12:55;100873.65;;;2.94;81.20
54872;BME280;43914;57.680;11.982;2023-02-22T11:17:52;100866.28;;;2.99;79.82
54872;BME280;43914;57.680;11.982;2023-02-22T11:20:32;100863.64;;;2.99;79.17
54872;BME280;43914;57.680;11.982;2023-02-22T11:23:01;100863.81;;;2.95;79.20
54872;BME280;43914;57.680;11.982;2023-02-22T11:25:30;100857.17;;;2.92;79.16
54872;BME280;43914;57.680;11.982;2023-02-22T11:28:10;100864.02;;;2.93;79.93
54872;BME280;43914;57.680;11.982;2023-02-22T11:30:40;100860.52;;;2.96;80.01
54872;BME280;43914;57.680;11.982;2023-02-22T11:38:22;100867.75;;;3.03;80.51
54872;BME280;43914;57.680;11.982;2023-02-22T11:41:20;100861.59;;;3.07;79.76
54872;BME280;43914;57.680;11.982;2023-02-22T11:43:50;100861.09;;;3.06;78.95
54872;BME280;43914;57.680;11.982;2023-02-22T11:46:25;100861.98;;;3.06;79.28
54872;BME280;43914;57.680;11.982;2023-02-22T11:48:59;100858.84;;;3.10;79.99
54872;BME280;43914;57.680;11.982;2023-02-22T11:51:33;100858.91;;;3.13;79.56
54872;BME280;43914;57.680;11.982;2023-02-22T11:56:48;100862.42;;;3.17;79.18
54872;BME280;43914;57.680;11.982;2023-02-22T11:59:43;100861.90;;;3.20;79.42
54872;BME280;43914;57.680;11.982;2023-02-22T12:15:46;100855.11;;;3.55;78.85
54872;BME280;43914;57.680;11.982;2023-02-22T12:18:28;100848.95;;;3.69;79.19
54872;BME280;43914;57.680;11.982;2023-02-22T12:20:59;100845.48;;;3.86;79.16
54872;BME280;43914;57.680;11.982;2023-02-22T12:23:37;100845.84;;;4.02;78.88
54872;BME280;43914;57.680;11.982;2023-02-22T12:26:13;100848.69;;;4.16;78.15
54872;BME280;43914;57.680;11.982;2023-02-22T12:33:57;100836.48;;;4.33;75.50
54872;BME280;43914;57.680;11.982;2023-02-22T12:36:33;100837.05;;;4.27;73.95
54872;BME280;43914;57.680;11.982;2023-02-22T12:39:23;100833.77;;;4.18;73.98
54872;BME280;43914;57.680;11.982;2023-02-22T12:41:54;100831.78;;;4.09;73.86
54872;BME280;43914;57.680;11.982;2023-02-22T12:44:24;100830.69;;;4.01;74.09
54872;BME280;43914;57.680;11.982;2023-02-22T12:46:52;100831.25;;;3.98;75.34
54872;BME280;43914;57.680;11.982;2023-02-22T12:52:13;100824.20;;;3.94;74.83
54872;BME280;43914;57.680;11.982;2023-02-22T12:55:00;100825.40;;;3.91;74.85
54872;BME280;43914;57.680;11.982;2023-02-22T13:00:26;100825.52;;;3.87;75.45
54872;BME280;43914;57.680;11.982;2023-02-22T13:05:21;100825.92;;;3.88;75.66
54872;BME280;43914;57.680;11.982;2023-02-22T13:10:57;100828.39;;;4.01;75.86
54872;BME280;43914;57.680;11.982;2023-02-22T13:24:17;100822.52;;;3.91;75.82
54872;BME280;43914;57.680;11.982;2023-02-22T13:26:45;100820.98;;;3.90;75.62
54872;BME280;43914;57.680;11.982;2023-02-22T13:29:19;100823.00;;;3.88;75.37
54872;BME280;43914;57.680;11.982;2023-02-22T13:48:23;100811.97;;;3.84;76.09
54872;BME280;43914;57.680;11.982;2023-02-22T13:54:07;100808.09;;;3.92;76.43
54872;BME280;43914;57.680;11.982;2023-02-22T13:56:41;100805.55;;;3.96;75.81
54872;BME280;43914;57.680;11.982;2023-02-22T13:59:23;100804.75;;;3.96;75.59
54872;BME280;43914;57.680;11.982;2023-02-22T14:01:50;100799.86;;;3.97;75.95
54872;BME280;43914;57.680;11.982;2023-02-22T14:06:45;100797.66;;;3.99;75.66
54872;BME280;43914;57.680;11.982;2023-02-22T14:09:15;100798.66;;;3.98;75.75
54872;BME280;43914;57.680;11.982;2023-02-22T14:11:45;100794.44;;;3.96;75.00
54872;BME280;43914;57.680;11.982;2023-02-22T14:14:13;100789.20;;;3.91;75.05
54872;BME280;43914;57.680;11.982;2023-02-22T14:16:40;100792.20;;;3.85;75.13
54872;BME280;43914;57.680;11.982;2023-02-22T14:21:33;100782.64;;;3.83;75.91
54872;BME280;43914;57.680;11.982;2023-02-22T14:24:25;100784.52;;;3.82;75.94
54872;BME280;43914;57.680;11.982;2023-02-22T14:27:02;100787.60;;;3.77;75.51
54872;BME280;43914;57.680;11.982;2023-02-22T14:29:28;100788.38;;;3.72;75.39
54872;BME280;43914;57.680;11.982;2023-02-22T14:32:02;100788.06;;;3.68;75.61
54872;BME280;43914;57.680;11.982;2023-02-22T14:37:14;100782.41;;;3.68;76.58
54872;BME280;43914;57.680;11.982;2023-02-22T14:40:01;100776.09;;;3.69;76.77
54872;BME280;43914;57.680;11.982;2023-02-22T14:42:41;100771.36;;;3.68;75.87
54872;BME280;43914;57.680;11.982;2023-02-22T14:47:42;100774.22;;;3.62;75.78
54872;BME280;43914;57.680;11.982;2023-02-22T14:50:21;100778.52;;;3.60;75.88
54872;BME280;43914;57.680;11.982;2023-02-22T14:55:42;100778.36;;;3.52;75.90
54872;BME280;43914;57.680;11.982;2023-02-22T14:58:17;100777.65;;;3.48;75.99
54872;BME280;43914;57.680;11.982;2023-02-22T15:00:47;100776.08;;;3.45;76.69
54872;BME280;43914;57.680;11.982;2023-02-22T15:03:33;100777.23;;;3.44;76.80
54872;BME280;43914;57.680;11.982;2023-02-22T15:06:11;100773.05;;;3.41;76.77
54872;BME280;43914;57.680;11.982;2023-02-22T15:08:40;100776.69;;;3.40;77.01